Time;durP1;ratioP1;P1;durP2;ratioP2;P2;SDS_P1;SDS_P2;PMS_P1;PMS_P2;Temp;Humidity;BMP_temperature;BMP_pressure;BME280_temperature;BME280_humidity;BME280_pressure;Samples;Min_cycle;Max_cycle;Signal;HPM_P1;HPM_P2
2021/04/17 00:02:23;;;;;;;6.03;3.80;;;;;;;;;;5137541;27;20232;-76
2021/04/17 00:04:49;;;;;;;4.67;4.23;;;;;;;;;;5119413;27;20192;-73
2021/04/17 00:07:16;;;;;;;4.13;3.73;;;;;;;;;;5137510;27;20239;-78
2021/04/17 00:09:42;;;;;;;4.60;3.93;;;;;;;;;;5137647;27;20205;-73
2021/04/17 00:12:10;;;;;;;3.70;3.40;;;;;;;;;;5137216;27;20618;-75
2021/04/17 00:14:38;;;;;;;3.93;3.63;;;;;;;;;;5137697;27;20227;-73
2021/04/17 00:17:04;;;;;;;3.93;3.63;;;;;;;;;;5137744;27;20208;-78
2021/04/17 00:19:31;;;;;;;5.47;3.43;;;;;;;;;;5137570;27;20543;-74
2021/04/17 00:21:57;;;;;;;3.83;3.53;;;;;;;;;;5137663;27;20480;-75
2021/04/17 00:24:23;;;;;;;4.43;3.77;;;;;;;;;;5137772;27;20200;-73
2021/04/17 00:26:49;;;;;;;3.80;3.50;;;;;;;;;;5137390;27;20245;-76
2021/04/17 00:29:16;;;;;;;3.97;3.67;;;;;;;;;;5137306;27;20244;-73
2021/04/17 00:31:42;;;;;;;4.37;4.07;;;;;;;;;;5136447;27;20600;-74
2021/04/17 00:34:08;;;;;;;4.17;3.77;;;;;;;;;;5137228;27;20504;-73
2021/04/17 00:36:35;;;;;;;4.47;4.07;;;;;;;;;;5137087;27;20232;-73
2021/04/17 00:39:01;;;;;;;4.27;3.97;;;;;;;;;;5137408;27;20241;-76
2021/04/17 00:41:27;;;;;;;4.33;3.93;;;;;;;;;;5136836;27;20489;-73
2021/04/17 00:43:54;;;;;;;4.33;3.80;;;;;;;;;;5136916;27;20266;-74
2021/04/17 00:46:21;;;;;;;4.30;3.90;;;;;;;;;;5136869;27;20536;-76
2021/04/17 00:48:47;;;;;;;6.23;4.20;;;;;;;;;;5136688;27;20216;-73
2021/04/17 00:51:14;;;;;;;4.13;3.73;;;;;;;;;;5118621;27;20204;-74
2021/04/17 00:53:40;;;;;;;4.50;3.70;;;;;;;;;;5137074;27;20635;-74
2021/04/17 00:56:07;;;;;;;5.03;3.83;;;;;;;;;;5136708;27;20248;-75
2021/04/17 00:58:34;;;;;;;4.37;3.97;;;;;;;;;;5137109;27;20561;-75
2021/04/17 01:01:01;;;;;;;5.50;4.07;;;;;;;;;;5136690;27;20211;-84
2021/04/17 01:03:33;;;;;;;4.10;3.80;;;;;;;;;;5136841;27;20231;-76
2021/04/17 01:06:02;;;;;;;4.67;3.97;;;;;;;;;;5135907;27;20200;-73
2021/04/17 01:08:33;;;;;;;4.30;3.90;;;;;;;;;;5136721;27;20592;-75
2021/04/17 01:11:02;;;;;;;4.83;4.37;;;;;;;;;;5136169;27;20647;-73
2021/04/17 01:13:28;;;;;;;5.97;4.40;;;;;;;;;;5136305;27;20228;-75
2021/04/17 01:15:55;;;;;;;5.50;4.50;;;;;;;;;;5136102;27;20247;-74
2021/04/17 01:18:23;;;;;;;5.23;3.83;;;;;;;;;;5135848;27;20204;-72
2021/04/17 01:20:51;;;;;;;6.93;4.33;;;;;;;;;;5136600;27;20239;-72
2021/04/17 01:23:19;;;;;;;6.70;4.40;;;;;;;;;;5136208;27;20237;-72
2021/04/17 01:25:52;;;;;;;5.23;4.07;;;;;;;;;;5136213;27;20223;-75
2021/04/17 01:28:18;;;;;;;4.40;4.00;;;;;;;;;;5135932;27;20203;-73
2021/04/17 01:30:45;;;;;;;4.50;4.10;;;;;;;;;;5135055;27;20647;-75
2021/04/17 01:33:12;;;;;;;4.27;3.87;;;;;;;;;;5135902;27;20635;-75
2021/04/17 01:35:38;;;;;;;4.30;3.83;;;;;;;;;;5135749;27;20647;-72
2021/04/17 01:38:12;;;;;;;6.20;4.27;;;;;;;;;;5135432;27;20250;-72
2021/04/17 01:40:39;;;;;;;4.43;4.00;;;;;;;;;;5135608;27;20559;-73
2021/04/17 01:43:07;;;;;;;4.77;4.23;;;;;;;;;;5135464;27;20295;-72
2021/04/17 01:45:33;;;;;;;4.43;4.03;;;;;;;;;;5135539;27;20239;-72
2021/04/17 01:48:01;;;;;;;4.80;4.03;;;;;;;;;;5135815;27;20200;-72
2021/04/17 01:50:28;;;;;;;4.27;3.97;;;;;;;;;;5135710;27;20542;-76
2021/04/17 01:52:55;;;;;;;5.60;3.80;;;;;;;;;;5136338;27;20619;-73
2021/04/17 01:55:22;;;;;;;4.07;3.77;;;;;;;;;;5136338;27;20246;-73
2021/04/17 01:57:48;;;;;;;4.40;4.07;;;;;;;;;;5135385;27;20296;-76
2021/04/17 02:00:16;;;;;;;4.90;4.40;;;;;;;;;;5135662;27;20227;-73
2021/04/17 02:02:43;;;;;;;4.33;3.90;;;;;;;;;;5136008;28;20623;-72
2021/04/17 02:05:09;;;;;;;4.63;3.83;;;;;;;;;;5135909;28;20203;-75
2021/04/17 02:07:35;;;;;;;6.37;3.83;;;;;;;;;;5136005;28;20251;-76
2021/04/17 02:10:02;;;;;;;4.20;3.80;;;;;;;;;;5135676;28;20228;-74
2021/04/17 02:12:28;;;;;;;4.10;3.70;;;;;;;;;;5113920;28;20277;-75
2021/04/17 02:14:55;;;;;;;4.10;3.67;;;;;;;;;;5114597;28;20243;-75
2021/04/17 02:17:25;;;;;;;4.57;4.17;;;;;;;;;;5115343;28;20225;-77
2021/04/17 02:19:53;;;;;;;9.87;4.07;;;;;;;;;;5114414;28;20201;-73
2021/04/17 02:22:20;;;;;;;4.43;4.03;;;;;;;;;;5115436;28;20233;-77
2021/04/17 02:24:46;;;;;;;4.00;3.70;;;;;;;;;;5114986;28;20212;-73
2021/04/17 02:27:13;;;;;;;4.17;3.80;;;;;;;;;;5115354;28;20216;-72
2021/04/17 02:29:39;;;;;;;4.90;3.87;;;;;;;;;;5115371;28;20237;-75
2021/04/17 02:32:05;;;;;;;4.70;4.30;;;;;;;;;;5115409;28;20596;-73
2021/04/17 02:34:32;;;;;;;5.03;3.87;;;;;;;;;;5114877;28;20236;-75
2021/04/17 02:36:58;;;;;;;4.53;3.90;;;;;;;;;;5115743;28;20212;-77
2021/04/17 02:39:25;;;;;;;5.77;3.97;;;;;;;;;;5114399;28;20201;-77
2021/04/17 02:41:51;;;;;;;6.67;4.37;;;;;;;;;;5115445;28;20225;-80
2021/04/17 02:44:17;;;;;;;4.60;4.07;;;;;;;;;;5114712;28;20508;-79
2021/04/17 02:46:43;;;;;;;4.67;4.27;;;;;;;;;;5114853;28;20502;-78
2021/04/17 02:49:09;;;;;;;5.50;4.03;;;;;;;;;;5114280;28;20233;-72
2021/04/17 02:51:36;;;;;;;4.80;4.33;;;;;;;;;;5115080;28;20229;-76
2021/04/17 02:54:03;;;;;;;6.27;4.53;;;;;;;;;;5115855;28;20209;-72
2021/04/17 02:56:29;;;;;;;5.67;4.93;;;;;;;;;;5118658;28;20644;-75
2021/04/17 02:58:55;;;;;;;4.97;4.10;;;;;;;;;;5119049;28;20624;-72
2021/04/17 03:01:21;;;;;;;5.00;4.30;;;;;;;;;;5120316;28;20201;-74
2021/04/17 03:03:47;;;;;;;4.67;4.27;;;;;;;;;;5120054;28;20228;-73
2021/04/17 03:06:14;;;;;;;5.03;4.53;;;;;;;;;;5119410;28;20236;-73
2021/04/17 03:08:41;;;;;;;4.93;4.47;;;;;;;;;;5119695;28;20225;-75
2021/04/17 03:11:07;;;;;;;5.23;4.73;;;;;;;;;;5119876;28;20217;-77
2021/04/17 03:13:33;;;;;;;4.73;4.27;;;;;;;;;;5119186;28;20244;-75
2021/04/17 03:15:59;;;;;;;5.40;4.90;;;;;;;;;;5118360;28;20287;-73
2021/04/17 03:18:25;;;;;;;5.30;4.80;;;;;;;;;;5118361;28;20228;-73
2021/04/17 03:20:51;;;;;;;5.17;4.63;;;;;;;;;;5117718;28;20237;-74
2021/04/17 03:23:18;;;;;;;6.10;5.03;;;;;;;;;;5118568;28;20609;-76
2021/04/17 03:25:45;;;;;;;5.27;4.77;;;;;;;;;;5118445;28;20221;-73
2021/04/17 03:28:11;;;;;;;6.37;5.10;;;;;;;;;;5118406;28;20209;-79
2021/04/17 03:30:37;;;;;;;5.10;4.70;;;;;;;;;;5118089;28;20558;-76
2021/04/17 03:33:04;;;;;;;5.13;4.73;;;;;;;;;;5117919;28;20667;-73
2021/04/17 03:35:31;;;;;;;5.10;4.70;;;;;;;;;;5117881;28;20252;-74
2021/04/17 03:37:57;;;;;;;5.57;5.00;;;;;;;;;;5118192;28;20247;-75
2021/04/17 03:40:23;;;;;;;6.03;5.10;;;;;;;;;;5117675;28;20208;-73
2021/04/17 03:42:50;;;;;;;5.23;4.77;;;;;;;;;;5118329;28;20239;-73
2021/04/17 03:45:17;;;;;;;6.43;4.83;;;;;;;;;;5117621;28;20208;-75
2021/04/17 03:47:43;;;;;;;5.70;5.20;;;;;;;;;;5118000;28;20225;-72
2021/04/17 03:50:10;;;;;;;6.47;5.10;;;;;;;;;;5117441;28;20265;-75
2021/04/17 03:52:37;;;;;;;4.83;4.43;;;;;;;;;;5099580;28;20205;-76
2021/04/17 03:55:03;;;;;;;6.87;4.80;;;;;;;;;;5116726;28;20248;-73
2021/04/17 03:57:29;;;;;;;5.17;4.67;;;;;;;;;;5117666;28;20212;-75
2021/04/17 03:59:56;;;;;;;5.13;4.73;;;;;;;;;;5117020;28;20244;-72
2021/04/17 04:02:22;;;;;;;5.67;4.57;;;;;;;;;;5117984;28;20200;-73
2021/04/17 04:04:48;;;;;;;5.37;4.73;;;;;;;;;;5117456;28;20205;-72
2021/04/17 04:07:15;;;;;;;4.90;4.50;;;;;;;;;;5117140;28;20244;-73
2021/04/17 04:09:41;;;;;;;4.93;4.53;;;;;;;;;;5117196;28;20231;-74
2021/04/17 04:12:08;;;;;;;5.07;4.57;;;;;;;;;;5112496;28;20226;-75
2021/04/17 04:14:34;;;;;;;4.87;4.47;;;;;;;;;;5096015;28;20230;-81
2021/04/17 04:17:02;;;;;;;5.00;4.33;;;;;;;;;;5096212;28;20554;-74
2021/04/17 04:19:28;;;;;;;4.70;4.30;;;;;;;;;;5096485;28;20221;-73
2021/04/17 04:21:54;;;;;;;4.90;4.40;;;;;;;;;;5096771;28;20202;-74
2021/04/17 04:24:20;;;;;;;7.17;4.50;;;;;;;;;;5096008;28;20233;-73
2021/04/17 04:26:46;;;;;;;5.47;4.07;;;;;;;;;;5096251;28;20225;-74
2021/04/17 04:29:12;;;;;;;5.50;4.60;;;;;;;;;;5095968;28;20237;-72
2021/04/17 04:31:38;;;;;;;6.00;4.70;;;;;;;;;;5095875;28;20214;-72
2021/04/17 04:34:05;;;;;;;5.00;4.50;;;;;;;;;;5095540;28;20442;-72
2021/04/17 04:36:32;;;;;;;6.10;5.33;;;;;;;;;;5095512;28;20293;-72
2021/04/17 04:38:58;;;;;;;7.20;5.17;;;;;;;;;;5095650;28;20233;-72
2021/04/17 04:41:24;;;;;;;5.47;4.97;;;;;;;;;;5095761;28;20236;-72
2021/04/17 04:43:50;;;;;;;5.23;4.73;;;;;;;;;;5096068;28;20230;-72
2021/04/17 04:46:16;;;;;;;5.60;4.80;;;;;;;;;;5095833;28;20626;-73
2021/04/17 04:48:42;;;;;;;5.67;5.13;;;;;;;;;;5095578;28;20617;-73
2021/04/17 04:51:11;;;;;;;6.47;5.87;;;;;;;;;;5095493;28;20236;-80
2021/04/17 04:53:37;;;;;;;6.87;5.50;;;;;;;;;;5096310;28;20237;-82
2021/04/17 04:56:03;;;;;;;6.17;5.60;;;;;;;;;;5095344;28;20252;-73
2021/04/17 04:58:29;;;;;;;8.23;5.93;;;;;;;;;;5095490;28;20198;-71
2021/04/17 05:00:55;;;;;;;6.47;5.87;;;;;;;;;;5095412;28;20471;-72
2021/04/17 05:03:22;;;;;;;7.13;5.87;;;;;;;;;;5095480;28;20244;-72
2021/04/17 05:05:48;;;;;;;6.07;5.20;;;;;;;;;;5095312;28;20225;-72
2021/04/17 05:08:15;;;;;;;5.00;4.60;;;;;;;;;;5095682;28;20597;-72
2021/04/17 05:10:41;;;;;;;6.60;4.87;;;;;;;;;;5095321;28;20229;-72
2021/04/17 05:13:07;;;;;;;6.70;4.87;;;;;;;;;;5099638;28;20260;-72
2021/04/17 05:15:33;;;;;;;6.73;4.83;;;;;;;;;;5134529;27;20250;-73
2021/04/17 05:17:59;;;;;;;5.70;4.57;;;;;;;;;;5135864;27;20650;-73
2021/04/17 05:20:25;;;;;;;5.57;4.90;;;;;;;;;;5135653;27;20232;-72
2021/04/17 05:22:51;;;;;;;6.33;5.17;;;;;;;;;;5136469;27;20227;-72
2021/04/17 05:25:18;;;;;;;10.53;6.80;;;;;;;;;;5135783;27;20249;-72
2021/04/17 05:27:45;;;;;;;8.93;5.97;;;;;;;;;;5136257;27;20235;-73
2021/04/17 05:30:11;;;;;;;7.30;5.90;;;;;;;;;;5136178;27;20239;-72
2021/04/17 05:32:38;;;;;;;10.83;8.10;;;;;;;;;;5136780;27;20240;-73
2021/04/17 05:35:05;;;;;;;7.87;6.57;;;;;;;;;;5135326;27;20223;-72
2021/04/17 05:37:31;;;;;;;7.80;5.77;;;;;;;;;;5136019;27;20250;-73
2021/04/17 05:39:57;;;;;;;5.87;4.67;;;;;;;;;;5135549;27;20231;-73
2021/04/17 05:42:24;;;;;;;9.13;5.50;;;;;;;;;;5135958;27;20608;-72
2021/04/17 05:44:50;;;;;;;5.93;4.77;;;;;;;;;;5135413;27;20273;-76
2021/04/17 05:47:16;;;;;;;16.00;5.10;;;;;;;;;;5136021;27;20230;-77
2021/04/17 05:49:43;;;;;;;6.70;4.80;;;;;;;;;;5135662;27;20219;-76
2021/04/17 05:52:09;;;;;;;7.50;4.50;;;;;;;;;;5135996;27;20231;-75
2021/04/17 05:54:35;;;;;;;5.70;4.60;;;;;;;;;;5135375;27;20251;-76
2021/04/17 05:57:01;;;;;;;10.63;4.93;;;;;;;;;;5135892;27;20640;-76
2021/04/17 05:59:28;;;;;;;5.03;4.53;;;;;;;;;;5135453;27;20231;-75
2021/04/17 06:01:54;;;;;;;5.60;4.77;;;;;;;;;;5135272;27;20227;-76
2021/04/17 06:04:20;;;;;;;5.63;4.67;;;;;;;;;;5135728;28;20200;-75
2021/04/17 06:06:46;;;;;;;7.77;4.63;;;;;;;;;;5135625;28;20231;-76
2021/04/17 06:09:13;;;;;;;6.17;4.57;;;;;;;;;;5132696;28;20242;-76
2021/04/17 06:11:40;;;;;;;5.20;4.43;;;;;;;;;;5133132;27;20277;-75
2021/04/17 06:14:06;;;;;;;5.10;4.60;;;;;;;;;;5133234;27;20227;-76
2021/04/17 06:16:33;;;;;;;6.53;4.70;;;;;;;;;;5133150;28;20256;-75
2021/04/17 06:18:59;;;;;;;7.40;5.10;;;;;;;;;;5132665;28;20239;-76
2021/04/17 06:21:26;;;;;;;6.57;4.53;;;;;;;;;;5132121;28;20231;-76
2021/04/17 06:23:52;;;;;;;10.23;5.23;;;;;;;;;;5114351;28;20624;-77
2021/04/17 06:26:18;;;;;;;5.33;4.77;;;;;;;;;;5132625;28;20227;-75
2021/04/17 06:28:44;;;;;;;5.17;4.77;;;;;;;;;;5133836;27;20228;-75
2021/04/17 06:31:10;;;;;;;11.73;4.77;;;;;;;;;;5136672;27;20549;-77
2021/04/17 06:33:37;;;;;;;7.30;4.60;;;;;;;;;;5136913;27;20228;-76
2021/04/17 06:36:06;;;;;;;5.73;4.40;;;;;;;;;;5136930;27;20553;-76
2021/04/17 06:38:32;;;;;;;5.13;4.67;;;;;;;;;;5137379;27;20251;-75
2021/04/17 06:40:58;;;;;;;5.03;4.63;;;;;;;;;;5118369;27;20276;-75
2021/04/17 06:43:26;;;;;;;8.77;5.50;;;;;;;;;;5137007;27;20228;-76
2021/04/17 06:45:54;;;;;;;5.73;5.10;;;;;;;;;;5136718;27;20265;-79
2021/04/17 06:48:20;;;;;;;5.70;4.87;;;;;;;;;;5136319;27;20611;-76
2021/04/17 06:50:48;;;;;;;7.23;6.20;;;;;;;;;;5136250;27;20239;-75
2021/04/17 06:53:16;;;;;;;6.43;5.20;;;;;;;;;;5135903;27;20231;-75
2021/04/17 06:55:43;;;;;;;6.47;5.63;;;;;;;;;;5136144;27;20238;-75
2021/04/17 06:58:09;;;;;;;6.53;5.60;;;;;;;;;;5137154;27;20239;-76
2021/04/17 07:00:35;;;;;;;7.17;5.60;;;;;;;;;;5138593;27;20224;-76
2021/04/17 07:03:01;;;;;;;6.80;5.63;;;;;;;;;;5139209;27;20207;-80
2021/04/17 07:05:27;;;;;;;13.80;5.77;;;;;;;;;;5138520;27;20236;-75
2021/04/17 07:07:54;;;;;;;7.80;5.67;;;;;;;;;;5139105;27;20243;-75
2021/04/17 07:10:20;;;;;;;6.47;5.87;;;;;;;;;;5138331;27;20249;-75
2021/04/17 07:12:46;;;;;;;6.60;5.60;;;;;;;;;;5138403;27;20263;-75
2021/04/17 07:15:14;;;;;;;7.27;5.27;;;;;;;;;;5138692;27;20227;-76
2021/04/17 07:17:40;;;;;;;8.03;5.77;;;;;;;;;;5138551;27;20251;-77
2021/04/17 07:20:07;;;;;;;9.97;6.00;;;;;;;;;;5137932;27;20499;-77
2021/04/17 07:22:34;;;;;;;8.47;6.33;;;;;;;;;;5138454;27;20232;-77
2021/04/17 07:25:14;;;;;;;6.53;5.93;;;;;;;;;;5137714;27;20228;-77
2021/04/17 07:27:41;;;;;;;7.60;6.13;;;;;;;;;;5138227;27;20228;-76
2021/04/17 07:30:24;;;;;;;7.90;6.23;;;;;;;;;;5137665;27;20208;-76
2021/04/17 07:33:02;;;;;;;7.57;5.60;;;;;;;;;;5138385;27;20200;-75
2021/04/17 07:35:32;;;;;;;6.80;5.77;;;;;;;;;;5137752;27;20240;-76
2021/04/17 07:38:09;;;;;;;12.20;6.33;;;;;;;;;;5138429;27;20492;-78
2021/04/17 07:40:36;;;;;;;8.53;6.13;;;;;;;;;;5137460;27;20232;-79
2021/04/17 07:43:02;;;;;;;7.43;5.80;;;;;;;;;;5138626;27;20210;-85
2021/04/17 07:45:29;;;;;;;7.97;6.27;;;;;;;;;;5138113;27;20227;-78
2021/04/17 07:47:59;;;;;;;8.47;7.20;;;;;;;;;;5138383;27;20600;-80
2021/04/17 07:50:30;;;;;;;11.00;6.20;;;;;;;;;;5138746;27;20180;-80
2021/04/17 07:52:56;;;;;;;6.80;6.10;;;;;;;;;;5138572;27;20208;-82
2021/04/17 07:55:22;;;;;;;9.37;6.20;;;;;;;;;;5138184;27;20208;-76
2021/04/17 07:57:54;;;;;;;9.40;5.50;;;;;;;;;;5138122;27;20654;-79
2021/04/17 08:00:22;;;;;;;6.90;5.10;;;;;;;;;;5138101;27;20205;-77
2021/04/17 08:02:50;;;;;;;6.00;5.30;;;;;;;;;;5138051;27;20239;-79
2021/04/17 08:05:17;;;;;;;5.50;5.00;;;;;;;;;;5137253;27;20239;-76
2021/04/17 08:07:43;;;;;;;10.67;5.50;;;;;;;;;;5138019;27;20208;-82
2021/04/17 08:10:10;;;;;;;6.13;5.53;;;;;;;;;;5138019;27;20228;-77
2021/04/17 08:12:38;;;;;;;9.30;5.07;;;;;;;;;;5138369;27;20220;-76
2021/04/17 08:15:07;;;;;;;5.63;5.00;;;;;;;;;;5138085;27;20232;-76
2021/04/17 08:17:33;;;;;;;5.37;4.97;;;;;;;;;;5137222;27;20636;-77
2021/04/17 08:19:59;;;;;;;5.50;4.87;;;;;;;;;;5137937;27;20232;-79
2021/04/17 08:22:26;;;;;;;7.87;4.90;;;;;;;;;;5137610;27;20627;-77
2021/04/17 08:24:52;;;;;;;10.20;5.20;;;;;;;;;;5137496;27;20231;-76
2021/04/17 08:27:19;;;;;;;4.70;4.40;;;;;;;;;;5137234;27;20200;-77
2021/04/17 08:29:47;;;;;;;4.90;4.40;;;;;;;;;;5137161;27;20239;-77
2021/04/17 08:32:28;;;;;;;6.20;4.70;;;;;;;;;;5136821;27;20231;-77
2021/04/17 08:35:05;;;;;;;5.63;4.50;;;;;;;;;;5137327;27;20242;-76
2021/04/17 08:37:33;;;;;;;5.83;4.50;;;;;;;;;;5136948;27;20251;-76
2021/04/17 08:39:59;;;;;;;5.23;4.73;;;;;;;;;;5136873;27;20624;-77
2021/04/17 08:42:48;;;;;;;4.80;4.40;;;;;;;;;;5136684;27;20646;-76
2021/04/17 08:45:16;;;;;;;7.27;4.50;;;;;;;;;;5112929;27;20231;-76
2021/04/17 08:47:43;;;;;;;4.40;4.10;;;;;;;;;;5136785;27;20196;-77
2021/04/17 08:50:23;;;;;;;9.83;4.40;;;;;;;;;;5136612;27;20236;-79
2021/04/17 08:52:55;;;;;;;5.40;4.50;;;;;;;;;;5136138;27;20600;-76
2021/04/17 08:55:21;;;;;;;5.80;4.47;;;;;;;;;;5135961;27;20563;-78
2021/04/17 08:58:09;;;;;;;4.17;3.70;;;;;;;;;;5136491;27;20247;-78
2021/04/17 09:00:35;;;;;;;4.23;3.83;;;;;;;;;;5135961;27;20227;-78
2021/04/17 09:03:02;;;;;;;7.57;4.20;;;;;;;;;;5136542;27;20239;-79
2021/04/17 09:05:41;;;;;;;5.40;3.30;;;;;;;;;;5135931;27;20235;-77
2021/04/17 09:08:11;;;;;;;6.33;3.60;;;;;;;;;;5136352;27;20549;-78
2021/04/17 09:10:38;;;;;;;4.27;3.77;;;;;;;;;;5136405;27;20638;-77
2021/04/17 09:13:22;;;;;;;3.70;3.40;;;;;;;;;;5136333;27;20663;-77
2021/04/17 09:15:49;;;;;;;3.20;3.00;;;;;;;;;;5136202;27;20231;-79
2021/04/17 09:18:30;;;;;;;3.50;3.20;;;;;;;;;;5136189;27;20246;-78
2021/04/17 09:20:57;;;;;;;2.80;2.47;;;;;;;;;;5135737;27;20235;-76
2021/04/17 09:23:35;;;;;;;3.50;2.50;;;;;;;;;;5136401;27;20229;-77
2021/04/17 09:26:01;;;;;;;2.43;2.23;;;;;;;;;;5136471;27;20235;-77
2021/04/17 09:28:34;;;;;;;5.07;2.60;;;;;;;;;;5137193;27;20200;-74
2021/04/17 09:31:00;;;;;;;2.70;2.50;;;;;;;;;;5136218;27;20208;-76
2021/04/17 09:33:27;;;;;;;2.90;2.40;;;;;;;;;;5136545;27;20615;-79
2021/04/17 09:35:53;;;;;;;2.57;2.37;;;;;;;;;;5135839;27;20227;-76
2021/04/17 09:38:21;;;;;;;2.83;2.25;;;;;;;;;;5117169;27;20855;-76
2021/04/17 09:40:49;;;;;;;3.07;2.10;;;;;;;;;;5135135;27;20228;-75
2021/04/17 09:43:22;;;;;;;2.28;2.08;;;;;;;;;;5135427;27;20791;-78
2021/04/17 09:45:50;;;;;;;2.30;2.20;;;;;;;;;;5116946;27;20204;-78
2021/04/17 09:48:18;;;;;;;3.77;2.10;;;;;;;;;;5135475;27;20512;-77
2021/04/17 09:50:45;;;;;;;3.07;2.30;;;;;;;;;;5135505;27;20631;-81
2021/04/17 09:53:12;;;;;;;6.07;2.20;;;;;;;;;;5136278;27;20200;-77
2021/04/17 09:55:46;;;;;;;2.43;2.27;;;;;;;;;;5132218;27;20520;-76
2021/04/17 09:58:13;;;;;;;2.80;2.60;;;;;;;;;;5126267;27;20255;-76
2021/04/17 10:00:39;;;;;;;3.27;2.43;;;;;;;;;;4193994;27;10000274;-76
2021/04/17 10:03:06;;;;;;;3.40;2.20;;;;;;;;;;5030253;28;21354;-74
2021/04/17 10:05:33;;;;;;;3.67;3.00;;;;;;;;;;5072201;28;20230;-81
2021/04/17 10:08:00;;;;;;;3.17;2.50;;;;;;;;;;5072539;28;20230;-75
2021/04/17 10:10:34;;;;;;;5.50;2.73;;;;;;;;;;5072258;28;20237;-76
2021/04/17 10:13:01;;;;;;;8.20;3.13;;;;;;;;;;5072083;28;20246;-74
2021/04/17 10:15:28;;;;;;;3.03;2.50;;;;;;;;;;5072054;28;20602;-75
2021/04/17 10:17:55;;;;;;;4.53;2.73;;;;;;;;;;5072325;28;20552;-73
2021/04/17 10:20:22;;;;;;;6.63;3.00;;;;;;;;;;5072281;28;20229;-74
2021/04/17 10:22:51;;;;;;;5.90;2.73;;;;;;;;;;5071714;28;20238;-77
2021/04/17 10:25:32;;;;;;;3.93;2.63;;;;;;;;;;5070444;28;20669;-78
2021/04/17 10:28:09;;;;;;;2.87;2.53;;;;;;;;;;5051494;28;20287;-78
2021/04/17 10:30:36;;;;;;;5.23;2.73;;;;;;;;;;5071983;28;20594;-74
2021/04/17 10:33:02;;;;;;;2.43;2.10;;;;;;;;;;5071691;28;20245;-75
2021/04/17 10:35:32;;;;;;;2.50;2.27;;;;;;;;;;5071758;28;20242;-74
2021/04/17 10:37:59;;;;;;;3.10;2.63;;;;;;;;;;5071955;28;20254;-75
2021/04/17 10:40:26;;;;;;;3.87;2.97;;;;;;;;;;5071781;28;20628;-74
2021/04/17 10:42:54;;;;;;;2.90;2.70;;;;;;;;;;5071624;28;20796;-75
2021/04/17 10:45:21;;;;;;;2.93;2.27;;;;;;;;;;5071741;28;20238;-77
2021/04/17 10:47:58;;;;;;;3.57;2.47;;;;;;;;;;5071900;28;20241;-80
2021/04/17 10:50:25;;;;;;;2.50;2.30;;;;;;;;;;5071331;28;20234;-79
2021/04/17 10:52:56;;;;;;;4.00;2.47;;;;;;;;;;5072272;28;20882;-75
2021/04/17 10:55:29;;;;;;;3.60;2.30;;;;;;;;;;5070891;28;20229;-77
2021/04/17 10:57:55;;;;;;;2.63;2.43;;;;;;;;;;5071909;28;20646;-80
2021/04/17 11:00:27;;;;;;;3.53;2.30;;;;;;;;;;5070940;28;20238;-76
2021/04/17 11:02:53;;;;;;;2.60;2.40;;;;;;;;;;5071935;28;20234;-76
2021/04/17 11:05:20;;;;;;;3.90;2.53;;;;;;;;;;5071582;28;20230;-74
2021/04/17 11:07:46;;;;;;;3.97;2.60;;;;;;;;;;5071547;28;20725;-79
2021/04/17 11:10:13;;;;;;;5.60;2.90;;;;;;;;;;5070923;28;20238;-75
2021/04/17 11:12:39;;;;;;;2.80;2.60;;;;;;;;;;5072049;28;20247;-78
2021/04/17 11:15:15;;;;;;;2.37;2.27;;;;;;;;;;5072040;28;20233;-80
2021/04/17 11:17:42;;;;;;;2.80;2.60;;;;;;;;;;5075130;28;20315;-78
2021/04/17 11:20:16;;;;;;;2.70;2.50;;;;;;;;;;5074984;28;20230;-77
2021/04/17 11:27:54;;;;;;;2.90;2.60;;;;;;;;;;5011177;23;20252;-78
2021/04/17 11:30:20;;;;;;;2.93;2.53;;;;;;;;;;4994241;28;20205;-81
2021/04/17 11:32:46;;;;;;;3.53;2.63;;;;;;;;;;4994293;28;20209;-80
2021/04/17 11:35:13;;;;;;;7.83;3.83;;;;;;;;;;4975468;28;20267;-81
2021/04/17 11:37:39;;;;;;;2.80;2.60;;;;;;;;;;4995926;28;20808;-80
2021/04/17 11:40:06;;;;;;;3.17;2.83;;;;;;;;;;4978856;28;20873;-81
2021/04/17 11:42:33;;;;;;;2.67;2.30;;;;;;;;;;4996760;28;20193;-80
2021/04/17 11:45:00;;;;;;;2.77;2.57;;;;;;;;;;4996498;28;20178;-82
2021/04/17 11:47:26;;;;;;;5.97;2.47;;;;;;;;;;4996188;28;20178;-81
2021/04/17 11:49:53;;;;;;;2.57;2.37;;;;;;;;;;4978821;28;20256;-80
2021/04/17 11:52:19;;;;;;;2.30;2.10;;;;;;;;;;4978431;28;20233;-80
2021/04/17 11:54:47;;;;;;;5.33;2.60;;;;;;;;;;4978520;28;20206;-80
2021/04/17 11:57:13;;;;;;;3.53;2.57;;;;;;;;;;4978325;28;20269;-79
2021/04/17 11:59:40;;;;;;;6.03;2.53;;;;;;;;;;4978888;28;20206;-82
2021/04/17 12:02:07;;;;;;;3.53;2.43;;;;;;;;;;4996046;28;20247;-81
2021/04/17 12:04:33;;;;;;;3.27;2.40;;;;;;;;;;4995896;28;20217;-80
2021/04/17 12:06:59;;;;;;;10.10;2.60;;;;;;;;;;4978317;28;20625;-80
2021/04/17 12:09:25;;;;;;;6.13;2.17;;;;;;;;;;4978428;28;20881;-80
2021/04/17 12:11:52;;;;;;;2.67;2.40;;;;;;;;;;4977958;28;20711;-79
2021/04/17 12:14:18;;;;;;;2.20;2.10;;;;;;;;;;4978458;28;20202;-80
2021/04/17 12:16:44;;;;;;;3.03;2.40;;;;;;;;;;4978211;28;20248;-79
2021/04/17 12:19:11;;;;;;;2.63;2.43;;;;;;;;;;4995710;28;20213;-80
2021/04/17 12:21:37;;;;;;;4.80;2.50;;;;;;;;;;4995632;28;20884;-79
2021/04/17 12:24:04;;;;;;;2.77;2.57;;;;;;;;;;4977836;28;20206;-80
2021/04/17 12:26:30;;;;;;;4.43;2.70;;;;;;;;;;5002908;28;20248;-79
2021/04/17 12:28:56;;;;;;;3.10;2.50;;;;;;;;;;5013727;28;20204;-80
2021/04/17 12:31:22;;;;;;;2.78;2.58;;;;;;;;;;5013128;28;20778;-80
2021/04/17 12:33:49;;;;;;;5.73;2.33;;;;;;;;;;5014200;28;20209;-79
2021/04/17 12:36:16;;;;;;;3.70;2.97;;;;;;;;;;4997342;28;20215;-79
2021/04/17 12:38:42;;;;;;;3.80;2.30;;;;;;;;;;5014844;28;20229;-78
2021/04/17 12:41:08;;;;;;;2.27;2.10;;;;;;;;;;4996958;28;20201;-78
2021/04/17 12:43:37;;;;;;;4.67;2.40;;;;;;;;;;5014767;28;20564;-79
2021/04/17 12:46:03;;;;;;;2.53;2.23;;;;;;;;;;5014480;28;20217;-78
2021/04/17 12:48:29;;;;;;;4.93;2.43;;;;;;;;;;5013480;28;20224;-78
2021/04/17 12:50:55;;;;;;;2.73;2.20;;;;;;;;;;5014665;28;20224;-78
2021/04/17 12:53:25;;;;;;;3.20;2.27;;;;;;;;;;5013541;28;20259;-78
2021/04/17 12:55:51;;;;;;;4.67;2.37;;;;;;;;;;5013346;28;20216;-79
2021/04/17 12:58:17;;;;;;;4.03;2.40;;;;;;;;;;4996923;28;20680;-79
2021/04/17 13:00:44;;;;;;;2.87;2.40;;;;;;;;;;5014505;28;20205;-79
2021/04/17 13:03:10;;;;;;;2.50;2.30;;;;;;;;;;5013306;28;20263;-78
2021/04/17 13:05:36;;;;;;;3.30;2.30;;;;;;;;;;5012682;28;20201;-78
2021/04/17 13:08:02;;;;;;;5.27;2.50;;;;;;;;;;5012917;28;20204;-78
2021/04/17 13:10:29;;;;;;;4.83;2.90;;;;;;;;;;5012984;28;20200;-79
2021/04/17 13:12:57;;;;;;;4.00;2.40;;;;;;;;;;5014497;28;20213;-78
2021/04/17 13:15:23;;;;;;;3.33;2.20;;;;;;;;;;4996523;28;20197;-79
2021/04/17 13:17:50;;;;;;;7.10;2.20;;;;;;;;;;5012737;28;20261;-78
2021/04/17 13:20:17;;;;;;;3.47;2.43;;;;;;;;;;4996351;28;20188;-79
2021/04/17 13:22:43;;;;;;;3.87;2.17;;;;;;;;;;5012909;28;20255;-78
2021/04/17 13:25:10;;;;;;;2.20;2.10;;;;;;;;;;4996199;28;20200;-78
2021/04/17 13:27:37;;;;;;;2.60;2.33;;;;;;;;;;5013628;28;20236;-79
2021/04/17 13:30:04;;;;;;;3.10;2.63;;;;;;;;;;5012350;28;20668;-79
2021/04/17 13:32:30;;;;;;;3.63;2.47;;;;;;;;;;5013095;28;20219;-78
2021/04/17 13:34:56;;;;;;;2.90;2.53;;;;;;;;;;5012613;28;20770;-79
2021/04/17 13:37:25;;;;;;;5.97;2.60;;;;;;;;;;5012381;28;21201;-79
2021/04/17 13:39:51;;;;;;;4.45;2.47;;;;;;;;;;5012684;28;20761;-79
2021/04/17 13:42:17;;;;;;;3.80;2.47;;;;;;;;;;4996167;28;20205;-79
2021/04/17 13:44:44;;;;;;;4.57;2.40;;;;;;;;;;5012498;28;20204;-77
2021/04/17 13:47:10;;;;;;;2.70;2.27;;;;;;;;;;5012306;28;20738;-77
2021/04/17 13:49:36;;;;;;;3.17;2.87;;;;;;;;;;5012766;28;20201;-78
2021/04/17 13:52:03;;;;;;;3.03;2.73;;;;;;;;;;5013795;28;20215;-79
2021/04/17 13:54:30;;;;;;;3.73;2.70;;;;;;;;;;5012263;28;20856;-77
2021/04/17 13:56:57;;;;;;;6.43;2.63;;;;;;;;;;5013619;28;20244;-79
2021/04/17 13:59:24;;;;;;;3.83;2.40;;;;;;;;;;5013170;28;20216;-78
2021/04/17 14:01:51;;;;;;;4.03;2.67;;;;;;;;;;5013796;28;20527;-78
2021/04/17 14:04:19;;;;;;;3.50;2.60;;;;;;;;;;5012569;28;20781;-77
2021/04/17 14:06:45;;;;;;;2.53;2.20;;;;;;;;;;4995845;28;20664;-78
2021/04/17 14:09:11;;;;;;;3.47;2.30;;;;;;;;;;5012402;28;20379;-78
2021/04/17 14:11:37;;;;;;;4.10;2.70;;;;;;;;;;5013656;28;20857;-78
2021/04/17 14:14:03;;;;;;;2.17;2.08;;;;;;;;;;5013083;28;20212;-78
2021/04/17 14:16:29;;;;;;;4.03;2.50;;;;;;;;;;5013266;28;20248;-78
2021/04/17 14:18:56;;;;;;;3.25;2.33;;;;;;;;;;5013643;28;20228;-79
2021/04/17 14:21:23;;;;;;;4.05;2.47;;;;;;;;;;5013325;28;20239;-78
2021/04/17 14:23:49;;;;;;;3.53;2.33;;;;;;;;;;5013334;28;20587;-78
2021/04/17 14:26:15;;;;;;;2.67;2.47;;;;;;;;;;5012842;28;20240;-78
2021/04/17 14:28:42;;;;;;;2.85;2.40;;;;;;;;;;5012241;28;20216;-78
2021/04/17 14:31:08;;;;;;;3.30;1.88;;;;;;;;;;5011945;28;20224;-79
2021/04/17 14:33:34;;;;;;;3.30;2.13;;;;;;;;;;5011760;28;20232;-78
2021/04/17 14:36:01;;;;;;;2.97;2.08;;;;;;;;;;5011868;28;20760;-79
2021/04/17 14:38:27;;;;;;;2.92;2.40;;;;;;;;;;5013539;28;20232;-77
2021/04/17 14:40:53;;;;;;;2.65;2.30;;;;;;;;;;5013066;28;20694;-78
2021/04/17 14:43:21;;;;;;;5.47;2.60;;;;;;;;;;5013109;28;20710;-77
2021/04/17 14:45:47;;;;;;;3.23;2.33;;;;;;;;;;5011687;28;20259;-81
2021/04/17 14:48:13;;;;;;;3.97;2.22;;;;;;;;;;5011899;28;20959;-78
2021/04/17 14:50:40;;;;;;;2.35;2.15;;;;;;;;;;5015228;28;20240;-78